Time;durP1;ratioP1;P1;durP2;ratioP2;P2;SDS_P1;SDS_P2;PMS_P1;PMS_P2;Temp;Humidity;BMP_temperature;BMP_pressure;BME280_temperature;BME280_humidity;BME280_pressure;Samples;Min_cycle;Max_cycle;Signal;HPM_P1;HPM_P2
2022/09/17 00:00:24;;;;;;;4.17;2.07;;;;;;;;;;5080716;28;20288;-75
2022/09/17 00:02:54;;;;;;;2.10;1.90;;;;;;;;;;5081634;28;20237;-76
2022/09/17 00:05:23;;;;;;;2.03;1.83;;;;;;;;;;5082386;28;20207;-76
2022/09/17 00:07:51;;;;;;;5.90;2.40;;;;;;;;;;5081342;28;20271;-76
2022/09/17 00:10:17;;;;;;;2.70;1.90;;;;;;;;;;5084730;28;20192;-75
2022/09/17 00:12:44;;;;;;;2.67;1.80;;;;;;;;;;5047455;28;20172;-75
2022/09/17 00:15:10;;;;;;;3.73;2.00;;;;;;;;;;5083761;28;20271;-76
2022/09/17 00:17:37;;;;;;;3.27;2.00;;;;;;;;;;5083287;28;20204;-76
2022/09/17 00:20:04;;;;;;;2.43;1.80;;;;;;;;;;5087204;28;20216;-75
2022/09/17 00:22:33;;;;;;;2.90;1.80;;;;;;;;;;5087086;28;20436;-74
2022/09/17 00:25:05;;;;;;;2.20;1.70;;;;;;;;;;5085129;28;20289;-75
2022/09/17 00:27:34;;;;;;;1.97;1.40;;;;;;;;;;5085001;28;20180;-75
2022/09/17 00:30:00;;;;;;;2.70;1.90;;;;;;;;;;5089491;28;20227;-76
2022/09/17 00:32:26;;;;;;;3.20;1.73;;;;;;;;;;5087160;28;20180;-75
2022/09/17 00:34:52;;;;;;;2.63;1.53;;;;;;;;;;5086355;28;20177;-75
2022/09/17 00:37:19;;;;;;;2.07;1.33;;;;;;;;;;5069151;28;20188;-76
2022/09/17 00:39:45;;;;;;;2.53;1.60;;;;;;;;;;5086514;28;20253;-74
2022/09/17 00:42:12;;;;;;;1.73;1.43;;;;;;;;;;5082357;28;20181;-75
2022/09/17 00:44:44;;;;;;;3.63;1.70;;;;;;;;;;5064773;28;20217;-75
2022/09/17 00:47:13;;;;;;;2.33;1.50;;;;;;;;;;5084514;28;20223;-75
2022/09/17 00:49:40;;;;;;;2.33;1.50;;;;;;;;;;5082060;28;20283;-74
2022/09/17 00:52:11;;;;;;;3.03;1.50;;;;;;;;;;5068594;28;20591;-75
2022/09/17 00:54:39;;;;;;;2.57;1.57;;;;;;;;;;5085366;28;20604;-78
2022/09/17 00:57:05;;;;;;;2.20;1.50;;;;;;;;;;5085696;28;20180;-77
2022/09/17 00:59:32;;;;;;;2.60;1.80;;;;;;;;;;5086056;28;20247;-77
2022/09/17 01:01:58;;;;;;;3.83;1.80;;;;;;;;;;5081996;28;20184;-75
2022/09/17 01:04:25;;;;;;;2.13;1.60;;;;;;;;;;5084958;28;20451;-75
2022/09/17 01:06:54;;;;;;;2.10;1.73;;;;;;;;;;5078290;28;20193;-75
2022/09/17 01:09:28;;;;;;;5.30;1.90;;;;;;;;;;5081707;28;20207;-75
2022/09/17 01:12:06;;;;;;;2.17;1.83;;;;;;;;;;5081896;28;20173;-74
2022/09/17 01:14:32;;;;;;;2.67;1.80;;;;;;;;;;5097703;28;20253;-74
2022/09/17 01:17:01;;;;;;;4.73;2.17;;;;;;;;;;5083081;28;20507;-74
2022/09/17 01:19:30;;;;;;;2.50;1.63;;;;;;;;;;5087039;28;20682;-74
2022/09/17 01:22:00;;;;;;;1.77;1.50;;;;;;;;;;5087062;28;20203;-74
2022/09/17 01:24:35;;;;;;;2.13;1.50;;;;;;;;;;5081508;28;20694;-74
2022/09/17 01:27:11;;;;;;;2.10;1.60;;;;;;;;;;5078137;28;20184;-74
2022/09/17 01:29:40;;;;;;;3.37;1.80;;;;;;;;;;5083725;28;20235;-75
2022/09/17 01:32:12;;;;;;;2.97;1.70;;;;;;;;;;5084542;28;20180;-75
2022/09/17 01:34:45;;;;;;;2.77;1.70;;;;;;;;;;5082525;28;20192;-74
2022/09/17 01:37:21;;;;;;;2.70;1.60;;;;;;;;;;5082884;28;20628;-75
2022/09/17 01:39:53;;;;;;;2.40;1.70;;;;;;;;;;5081671;28;20534;-74
2022/09/17 01:42:25;;;;;;;2.90;1.87;;;;;;;;;;5081988;28;20237;-74
2022/09/17 01:45:16;;;;;;;3.87;2.00;;;;;;;;;;5083578;28;20235;-75
2022/09/17 01:47:48;;;;;;;4.00;1.53;;;;;;;;;;5081610;28;20216;-75
2022/09/17 01:50:20;;;;;;;2.20;1.57;;;;;;;;;;5085859;28;20201;-74
2022/09/17 01:52:48;;;;;;;2.83;1.40;;;;;;;;;;5085714;28;20462;-75
2022/09/17 01:55:16;;;;;;;5.77;1.60;;;;;;;;;;5086915;28;20267;-75
2022/09/17 01:57:50;;;;;;;3.30;1.40;;;;;;;;;;5082899;28;20640;-74
2022/09/17 02:00:17;;;;;;;3.47;1.80;;;;;;;;;;5085399;28;20196;-74
2022/09/17 02:02:59;;;;;;;3.03;1.60;;;;;;;;;;5083043;28;20241;-74
2022/09/17 02:05:31;;;;;;;4.37;1.80;;;;;;;;;;5085677;28;20231;-74
2022/09/17 02:07:58;;;;;;;2.07;1.53;;;;;;;;;;5087822;28;20507;-75
2022/09/17 02:10:29;;;;;;;2.50;1.57;;;;;;;;;;5086663;28;20578;-75
2022/09/17 02:12:58;;;;;;;2.53;1.73;;;;;;;;;;5084088;28;20709;-75
2022/09/17 02:15:27;;;;;;;3.27;1.97;;;;;;;;;;5082989;28;20192;-75
2022/09/17 02:18:17;;;;;;;2.20;1.80;;;;;;;;;;5083443;28;20207;-74
2022/09/17 02:20:46;;;;;;;3.33;1.60;;;;;;;;;;5062347;28;20720;-74
2022/09/17 02:23:15;;;;;;;5.13;1.90;;;;;;;;;;5080607;28;20184;-74
2022/09/17 02:25:53;;;;;;;5.27;1.60;;;;;;;;;;5083640;28;20295;-74
2022/09/17 02:28:34;;;;;;;2.37;1.50;;;;;;;;;;5077668;28;20177;-74
2022/09/17 02:31:01;;;;;;;2.40;1.50;;;;;;;;;;5053166;28;20570;-75
2022/09/17 02:33:27;;;;;;;4.23;2.03;;;;;;;;;;5082579;28;20607;-75
2022/09/17 02:35:53;;;;;;;2.67;1.63;;;;;;;;;;5089440;28;20177;-74
2022/09/17 02:38:26;;;;;;;4.47;1.77;;;;;;;;;;5089239;28;20318;-75
2022/09/17 02:40:58;;;;;;;2.07;1.60;;;;;;;;;;5088051;28;20298;-76
2022/09/17 02:43:33;;;;;;;2.40;1.53;;;;;;;;;;5090198;28;20190;-76
2022/09/17 02:46:09;;;;;;;3.93;1.67;;;;;;;;;;5086219;28;20661;-75
2022/09/17 02:49:01;;;;;;;2.90;1.77;;;;;;;;;;5085198;28;20180;-77
2022/09/17 02:51:46;;;;;;;3.40;1.90;;;;;;;;;;5079479;28;20230;-77
2022/09/17 02:54:31;;;;;;;2.63;1.70;;;;;;;;;;5090022;28;20181;-76
2022/09/17 02:57:12;;;;;;;2.30;1.70;;;;;;;;;;5088207;28;20195;-77
2022/09/17 02:59:54;;;;;;;2.50;1.70;;;;;;;;;;5088007;28;20259;-76
2022/09/17 03:02:22;;;;;;;3.00;1.90;;;;;;;;;;5080370;28;20195;-77
2022/09/17 03:04:49;;;;;;;2.73;1.73;;;;;;;;;;5089497;28;20212;-77
2022/09/17 03:07:16;;;;;;;2.53;1.73;;;;;;;;;;5083268;28;20225;-76
2022/09/17 03:09:45;;;;;;;5.33;2.00;;;;;;;;;;5091327;28;20200;-76
2022/09/17 03:12:12;;;;;;;2.80;1.90;;;;;;;;;;5085594;28;20173;-76
2022/09/17 03:14:38;;;;;;;2.17;1.67;;;;;;;;;;5087142;28;20253;-77
2022/09/17 03:17:04;;;;;;;3.40;1.80;;;;;;;;;;5090584;28;20207;-77
2022/09/17 03:19:30;;;;;;;4.73;1.80;;;;;;;;;;5088801;28;20533;-76
2022/09/17 03:21:56;;;;;;;4.47;1.90;;;;;;;;;;5081383;28;20191;-77
2022/09/17 03:24:22;;;;;;;5.23;1.90;;;;;;;;;;5089925;28;20441;-76
2022/09/17 03:26:49;;;;;;;3.50;2.10;;;;;;;;;;5089465;28;20271;-77
2022/09/17 03:29:15;;;;;;;4.40;1.83;;;;;;;;;;5063793;28;20193;-76
2022/09/17 03:31:42;;;;;;;2.27;1.63;;;;;;;;;;5083912;28;20629;-76
2022/09/17 03:34:08;;;;;;;2.73;1.67;;;;;;;;;;5088346;28;20180;-76
2022/09/17 03:36:34;;;;;;;3.63;1.70;;;;;;;;;;5090035;28;20861;-77
2022/09/17 03:39:01;;;;;;;3.53;1.90;;;;;;;;;;5087196;28;20224;-76
2022/09/17 03:41:27;;;;;;;3.20;1.90;;;;;;;;;;5084899;28;20629;-77
2022/09/17 03:43:53;;;;;;;4.57;1.80;;;;;;;;;;5089735;28;20173;-76
2022/09/17 03:46:20;;;;;;;4.57;2.23;;;;;;;;;;5099159;28;20263;-76
2022/09/17 03:48:46;;;;;;;3.60;1.70;;;;;;;;;;5083682;28;20173;-76
2022/09/17 03:51:12;;;;;;;5.17;2.03;;;;;;;;;;5068857;28;20184;-76
2022/09/17 03:53:38;;;;;;;4.27;1.87;;;;;;;;;;5091887;28;20193;-76
2022/09/17 03:56:06;;;;;;;3.67;1.90;;;;;;;;;;5086803;28;20199;-75
2022/09/17 03:58:32;;;;;;;4.00;2.20;;;;;;;;;;5088564;28;20485;-76
2022/09/17 04:00:59;;;;;;;3.63;2.10;;;;;;;;;;5085029;28;20199;-77
2022/09/17 04:03:26;;;;;;;4.50;2.40;;;;;;;;;;5083816;28;20176;-75
2022/09/17 04:05:52;;;;;;;3.57;1.87;;;;;;;;;;5084955;28;20216;-76
2022/09/17 04:08:18;;;;;;;4.87;1.83;;;;;;;;;;5086984;28;20557;-76
2022/09/17 04:10:45;;;;;;;5.17;2.00;;;;;;;;;;5085984;28;20564;-75
2022/09/17 04:13:11;;;;;;;3.70;1.83;;;;;;;;;;5086215;28;20181;-76
2022/09/17 04:15:37;;;;;;;5.83;2.20;;;;;;;;;;5084674;28;20220;-76
2022/09/17 04:18:03;;;;;;;2.63;2.00;;;;;;;;;;5078033;28;20185;-76
2022/09/17 04:20:30;;;;;;;5.87;2.10;;;;;;;;;;5087647;28;20777;-76
2022/09/17 04:22:56;;;;;;;4.60;1.70;;;;;;;;;;5077114;28;20189;-76
2022/09/17 04:25:22;;;;;;;4.07;1.90;;;;;;;;;;5087855;28;20216;-77
2022/09/17 04:27:48;;;;;;;6.23;2.00;;;;;;;;;;5088016;28;20184;-77
2022/09/17 04:30:15;;;;;;;3.27;1.90;;;;;;;;;;5088369;28;20192;-77
2022/09/17 04:32:42;;;;;;;4.30;2.00;;;;;;;;;;5085161;28;20181;-77
2022/09/17 04:35:08;;;;;;;4.13;2.30;;;;;;;;;;5084287;28;20183;-76
2022/09/17 04:37:34;;;;;;;3.57;2.07;;;;;;;;;;5080682;28;20220;-76
2022/09/17 04:40:00;;;;;;;6.67;2.20;;;;;;;;;;5083331;28;20228;-76
2022/09/17 04:42:27;;;;;;;3.40;1.90;;;;;;;;;;5084286;28;20300;-76
2022/09/17 04:44:53;;;;;;;3.83;2.00;;;;;;;;;;5085481;28;20208;-74
2022/09/17 04:47:19;;;;;;;3.80;2.23;;;;;;;;;;5081590;28;20176;-75
2022/09/17 04:49:45;;;;;;;4.63;2.10;;;;;;;;;;5087833;28;21042;-74
2022/09/17 04:52:11;;;;;;;5.83;2.23;;;;;;;;;;5087050;28;20177;-75
2022/09/17 04:54:37;;;;;;;5.07;1.97;;;;;;;;;;5080747;28;20219;-75
2022/09/17 04:57:04;;;;;;;4.17;2.00;;;;;;;;;;5086539;28;20742;-75
2022/09/17 04:59:30;;;;;;;5.23;2.10;;;;;;;;;;5090266;28;20232;-74
2022/09/17 05:01:56;;;;;;;2.40;1.97;;;;;;;;;;5088389;28;20183;-75
2022/09/17 05:04:22;;;;;;;3.77;2.13;;;;;;;;;;5088287;28;20222;-74
2022/09/17 05:06:48;;;;;;;4.97;2.20;;;;;;;;;;5089454;28;20230;-74
2022/09/17 05:09:15;;;;;;;4.83;2.10;;;;;;;;;;5070836;28;20287;-76
2022/09/17 05:11:41;;;;;;;2.70;2.13;;;;;;;;;;5069163;28;20203;-75
2022/09/17 05:14:07;;;;;;;5.27;2.03;;;;;;;;;;5066763;28;20667;-75
2022/09/17 05:16:33;;;;;;;6.37;2.23;;;;;;;;;;5077494;28;20656;-74
2022/09/17 05:19:00;;;;;;;4.63;2.20;;;;;;;;;;5086354;28;20219;-75
2022/09/17 05:21:26;;;;;;;5.50;1.93;;;;;;;;;;5087866;28;20720;-75
2022/09/17 05:23:52;;;;;;;3.90;2.20;;;;;;;;;;5079588;28;20194;-74
2022/09/17 05:26:18;;;;;;;4.27;2.20;;;;;;;;;;5087621;28;20218;-74
2022/09/17 05:28:44;;;;;;;6.57;2.23;;;;;;;;;;5086570;28;20196;-74
2022/09/17 05:31:10;;;;;;;3.73;1.97;;;;;;;;;;5079738;28;20181;-74
2022/09/17 05:33:37;;;;;;;4.80;2.20;;;;;;;;;;5088433;28;20184;-75
2022/09/17 05:36:03;;;;;;;3.47;2.03;;;;;;;;;;5082479;28;20275;-75
2022/09/17 05:38:29;;;;;;;3.87;2.00;;;;;;;;;;5081661;28;20200;-75
2022/09/17 05:40:55;;;;;;;3.47;1.90;;;;;;;;;;5085412;28;20272;-75
2022/09/17 05:43:22;;;;;;;6.47;2.53;;;;;;;;;;5082902;28;20181;-75
2022/09/17 05:45:48;;;;;;;5.77;2.10;;;;;;;;;;5082723;28;20208;-75
2022/09/17 05:48:15;;;;;;;3.87;2.00;;;;;;;;;;5086005;28;20174;-76
2022/09/17 05:50:41;;;;;;;5.03;2.23;;;;;;;;;;5084665;28;20203;-75
2022/09/17 05:53:10;;;;;;;5.83;2.20;;;;;;;;;;5086920;28;20183;-76
2022/09/17 05:55:36;;;;;;;4.77;2.30;;;;;;;;;;5078226;28;20224;-75
2022/09/17 05:58:10;;;;;;;4.40;2.07;;;;;;;;;;5079285;28;20193;-75
2022/09/17 06:00:36;;;;;;;6.83;2.40;;;;;;;;;;5103338;28;20207;-75
2022/09/17 06:03:03;;;;;;;4.20;2.53;;;;;;;;;;5088214;28;20189;-75
2022/09/17 06:05:29;;;;;;;4.10;2.20;;;;;;;;;;5085181;28;20218;-75
2022/09/17 06:07:55;;;;;;;3.57;2.00;;;;;;;;;;5097741;28;20224;-74
2022/09/17 06:10:21;;;;;;;4.57;2.10;;;;;;;;;;5079849;28;20707;-75
2022/09/17 06:12:55;;;;;;;4.63;2.20;;;;;;;;;;5085327;28;20218;-76
2022/09/17 06:15:21;;;;;;;4.97;2.20;;;;;;;;;;5083326;28;20230;-75
2022/09/17 06:17:47;;;;;;;5.43;2.20;;;;;;;;;;5074113;28;20272;-75
2022/09/17 06:20:15;;;;;;;3.63;2.00;;;;;;;;;;5091389;28;20211;-74
2022/09/17 06:22:41;;;;;;;5.47;2.00;;;;;;;;;;5089706;28;20189;-76
2022/09/17 06:25:07;;;;;;;5.77;1.73;;;;;;;;;;5086491;28;20204;-77
2022/09/17 06:27:34;;;;;;;4.80;2.07;;;;;;;;;;5093920;28;20187;-76
2022/09/17 06:30:00;;;;;;;4.33;2.20;;;;;;;;;;5089584;28;20196;-76
2022/09/17 06:32:27;;;;;;;4.90;2.10;;;;;;;;;;5091347;28;20169;-77
2022/09/17 06:34:54;;;;;;;4.60;2.07;;;;;;;;;;5097568;28;20260;-76
2022/09/17 06:37:26;;;;;;;3.13;2.10;;;;;;;;;;5094618;28;20184;-78
2022/09/17 06:39:53;;;;;;;3.23;2.00;;;;;;;;;;5048294;28;20208;-76
2022/09/17 06:42:19;;;;;;;4.27;2.30;;;;;;;;;;5088887;28;20598;-76
2022/09/17 06:44:45;;;;;;;3.70;1.83;;;;;;;;;;5086672;28;20203;-77
2022/09/17 06:47:12;;;;;;;5.07;2.23;;;;;;;;;;5104015;28;20184;-77
2022/09/17 06:49:38;;;;;;;5.20;2.17;;;;;;;;;;5092533;28;20277;-79
2022/09/17 06:52:04;;;;;;;3.13;2.20;;;;;;;;;;5078129;28;20636;-78
2022/09/17 06:54:30;;;;;;;3.93;2.10;;;;;;;;;;5086360;28;20826;-76
2022/09/17 06:56:57;;;;;;;4.43;1.97;;;;;;;;;;5087572;28;20624;-76
2022/09/17 06:59:24;;;;;;;3.70;2.20;;;;;;;;;;5083790;28;20232;-78
2022/09/17 07:01:50;;;;;;;4.53;2.70;;;;;;;;;;5080363;28;20262;-78
2022/09/17 07:04:17;;;;;;;5.53;2.20;;;;;;;;;;5085106;28;20181;-76
2022/09/17 07:06:44;;;;;;;7.57;2.10;;;;;;;;;;5083624;28;20234;-77
2022/09/17 07:09:10;;;;;;;4.57;2.20;;;;;;;;;;5074666;28;20208;-79
2022/09/17 07:11:37;;;;;;;3.73;2.00;;;;;;;;;;5086453;28;20203;-79
2022/09/17 07:14:03;;;;;;;3.93;2.13;;;;;;;;;;5089547;28;20169;-81
2022/09/17 07:16:35;;;;;;;5.57;2.07;;;;;;;;;;5084688;28;20558;-80
2022/09/17 07:19:02;;;;;;;3.53;1.93;;;;;;;;;;5067796;28;20228;-84
2022/09/17 07:21:28;;;;;;;4.83;2.37;;;;;;;;;;5067130;28;20197;-83
2022/09/17 07:24:00;;;;;;;7.83;2.30;;;;;;;;;;5082971;28;20696;-80
2022/09/17 07:26:26;;;;;;;2.63;2.00;;;;;;;;;;5086929;28;20216;-82
2022/09/17 07:28:53;;;;;;;4.33;2.13;;;;;;;;;;5086073;28;20185;-84
2022/09/17 07:31:19;;;;;;;4.37;2.30;;;;;;;;;;5093414;28;20183;-83
2022/09/17 07:33:45;;;;;;;4.00;2.13;;;;;;;;;;5069395;28;20191;-82
2022/09/17 07:36:12;;;;;;;5.40;2.20;;;;;;;;;;5074203;28;20652;-81
2022/09/17 07:38:39;;;;;;;4.73;2.30;;;;;;;;;;5091257;28;20441;-81
2022/09/17 07:41:12;;;;;;;6.13;2.30;;;;;;;;;;5055954;28;20203;-85
2022/09/17 07:43:39;;;;;;;6.17;2.30;;;;;;;;;;5072866;28;20189;-84
2022/09/17 07:46:06;;;;;;;7.37;2.60;;;;;;;;;;5094423;28;20212;-85
2022/09/17 07:48:33;;;;;;;2.90;2.03;;;;;;;;;;5082096;28;20950;-79
2022/09/17 07:50:59;;;;;;;9.53;2.67;;;;;;;;;;5079602;28;20240;-81
2022/09/17 07:53:25;;;;;;;8.13;2.40;;;;;;;;;;5085432;28;20219;-80
2022/09/17 07:55:52;;;;;;;5.33;2.17;;;;;;;;;;5080494;28;20648;-82
2022/09/17 07:58:19;;;;;;;4.80;2.10;;;;;;;;;;5059591;28;20192;-79
2022/09/17 08:00:45;;;;;;;5.90;2.30;;;;;;;;;;5073849;28;20671;-80
2022/09/17 08:03:11;;;;;;;5.87;2.40;;;;;;;;;;5082149;28;20636;-79
2022/09/17 08:05:38;;;;;;;6.50;2.20;;;;;;;;;;5074330;28;20216;-79
2022/09/17 08:08:04;;;;;;;2.90;1.80;;;;;;;;;;5081787;28;20586;-80
2022/09/17 08:10:30;;;;;;;4.47;1.97;;;;;;;;;;5086500;28;20208;-79
2022/09/17 08:12:57;;;;;;;8.03;2.60;;;;;;;;;;5086671;28;20185;-79
2022/09/17 08:15:24;;;;;;;6.93;2.60;;;;;;;;;;5058235;28;20271;-80
2022/09/17 08:17:50;;;;;;;4.67;2.03;;;;;;;;;;5066317;28;20267;-81
2022/09/17 08:20:18;;;;;;;3.83;2.03;;;;;;;;;;5081006;28;20397;-78
2022/09/17 08:22:44;;;;;;;7.53;2.37;;;;;;;;;;5079239;28;20257;-77
2022/09/17 08:25:10;;;;;;;5.47;2.30;;;;;;;;;;5084172;28;20256;-76
2022/09/17 08:27:37;;;;;;;8.20;2.40;;;;;;;;;;5081019;28;20264;-77
2022/09/17 08:30:04;;;;;;;6.77;2.17;;;;;;;;;;5080375;28;20200;-77
2022/09/17 08:32:31;;;;;;;5.73;2.20;;;;;;;;;;5083398;28;20192;-79
2022/09/17 08:34:57;;;;;;;6.83;2.40;;;;;;;;;;5060741;28;20191;-78
2022/09/17 08:37:23;;;;;;;6.20;2.27;;;;;;;;;;5084160;28;20275;-77
2022/09/17 08:39:50;;;;;;;6.60;2.20;;;;;;;;;;5083427;28;20204;-76
2022/09/17 08:42:25;;;;;;;7.30;2.30;;;;;;;;;;5083215;28;20213;-76
2022/09/17 08:44:52;;;;;;;7.43;2.30;;;;;;;;;;5082573;28;21489;-79
2022/09/17 08:47:25;;;;;;;8.67;2.70;;;;;;;;;;5083850;28;20184;-80
2022/09/17 08:49:53;;;;;;;9.27;2.20;;;;;;;;;;5083912;28;20208;-78
2022/09/17 08:52:19;;;;;;;7.80;1.90;;;;;;;;;;5063761;28;20211;-77
2022/09/17 08:54:48;;;;;;;7.00;2.13;;;;;;;;;;5084408;28;20570;-77
2022/09/17 08:57:27;;;;;;;6.03;2.20;;;;;;;;;;5083616;28;20204;-77
2022/09/17 08:59:53;;;;;;;6.23;2.10;;;;;;;;;;5080091;28;20200;-80
2022/09/17 09:02:28;;;;;;;7.50;2.00;;;;;;;;;;5083018;28;20582;-77
2022/09/17 09:05:01;;;;;;;6.93;2.10;;;;;;;;;;5083974;28;20304;-77
2022/09/17 09:07:30;;;;;;;5.43;2.00;;;;;;;;;;5083086;28;20252;-77
2022/09/17 09:10:03;;;;;;;5.63;2.20;;;;;;;;;;5077336;28;20216;-78
2022/09/17 09:12:31;;;;;;;6.83;2.00;;;;;;;;;;5066559;28;20203;-77
2022/09/17 09:15:00;;;;;;;8.03;2.00;;;;;;;;;;5079664;28;20199;-77
2022/09/17 09:17:31;;;;;;;6.07;1.87;;;;;;;;;;5081410;28;20201;-78
2022/09/17 09:19:57;;;;;;;8.57;2.07;;;;;;;;;;5078848;28;20356;-76
2022/09/17 09:22:42;;;;;;;6.30;1.83;;;;;;;;;;5081510;28;20181;-77
2022/09/17 09:25:28;;;;;;;7.80;1.90;;;;;;;;;;5072855;28;21679;-78
2022/09/17 09:28:10;;;;;;;5.43;1.67;;;;;;;;;;5088584;28;20872;-77
2022/09/17 09:30:42;;;;;;;3.90;1.57;;;;;;;;;;5081994;28;20689;-79
2022/09/17 09:33:17;;;;;;;4.63;1.77;;;;;;;;;;5074585;28;20201;-77
2022/09/17 09:35:44;;;;;;;8.73;1.80;;;;;;;;;;5082766;28;20268;-78
2022/09/17 09:38:15;;;;;;;5.90;1.60;;;;;;;;;;5076877;28;20176;-78
2022/09/17 09:40:47;;;;;;;5.00;1.60;;;;;;;;;;5075516;28;20212;-76
2022/09/17 09:43:14;;;;;;;2.90;1.40;;;;;;;;;;5074407;28;20187;-78
2022/09/17 09:45:46;;;;;;;5.13;1.63;;;;;;;;;;5081997;28;20196;-76
2022/09/17 09:48:34;;;;;;;4.80;1.67;;;;;;;;;;5071734;28;20265;-77
2022/09/17 09:51:00;;;;;;;6.17;1.80;;;;;;;;;;5072916;28;20207;-77
2022/09/17 09:53:33;;;;;;;4.43;1.57;;;;;;;;;;5076940;28;20614;-78
2022/09/17 09:56:11;;;;;;;6.47;1.60;;;;;;;;;;5081443;28;20998;-80
2022/09/17 09:58:39;;;;;;;5.43;1.50;;;;;;;;;;5071244;28;20375;-79
2022/09/17 10:01:26;;;;;;;6.37;2.10;;;;;;;;;;5076542;28;20560;-77
2022/09/17 10:03:54;;;;;;;5.77;1.77;;;;;;;;;;5077277;28;20183;-78
2022/09/17 10:06:22;;;;;;;6.33;2.10;;;;;;;;;;5067720;28;20224;-77
2022/09/17 10:08:54;;;;;;;6.27;1.57;;;;;;;;;;5071488;28;20199;-77
2022/09/17 10:11:20;;;;;;;4.67;1.30;;;;;;;;;;5076300;28;20188;-80
2022/09/17 10:13:47;;;;;;;5.67;1.70;;;;;;;;;;5078392;28;20207;-77
2022/09/17 10:16:16;;;;;;;7.17;1.70;;;;;;;;;;5081250;28;20556;-78
2022/09/17 10:18:43;;;;;;;5.20;1.50;;;;;;;;;;5072906;28;20188;-77
2022/09/17 10:21:19;;;;;;;4.17;1.60;;;;;;;;;;5070657;28;20589;-76
2022/09/17 10:23:45;;;;;;;5.57;2.00;;;;;;;;;;5063460;28;20188;-76
2022/09/17 10:26:25;;;;;;;3.80;1.30;;;;;;;;;;5074858;28;20208;-77
2022/09/17 10:28:53;;;;;;;7.47;1.90;;;;;;;;;;5073855;28;20190;-77
2022/09/17 10:31:19;;;;;;;6.83;1.70;;;;;;;;;;5073216;28;20238;-76
2022/09/17 10:33:53;;;;;;;5.97;1.50;;;;;;;;;;5080374;28;20199;-75
2022/09/17 10:36:39;;;;;;;6.07;1.70;;;;;;;;;;5080047;28;20188;-76
2022/09/17 10:39:18;;;;;;;5.73;1.60;;;;;;;;;;5078352;28;20200;-76
2022/09/17 10:41:53;;;;;;;6.47;1.60;;;;;;;;;;5081291;28;20202;-76
2022/09/17 10:44:21;;;;;;;6.70;1.57;;;;;;;;;;5080994;28;20180;-76
2022/09/17 10:46:47;;;;;;;6.23;1.50;;;;;;;;;;5081005;28;20587;-74
2022/09/17 10:49:31;;;;;;;3.80;1.30;;;;;;;;;;5080018;28;20223;-78
2022/09/17 10:52:12;;;;;;;5.33;1.50;;;;;;;;;;5073178;28;20208;-78
2022/09/17 10:54:47;;;;;;;4.93;1.20;;;;;;;;;;5080794;28;20623;-77
2022/09/17 10:57:20;;;;;;;6.70;1.90;;;;;;;;;;5080353;28;21053;-77
2022/09/17 10:59:50;;;;;;;5.37;1.90;;;;;;;;;;5086007;28;20204;-78
2022/09/17 11:02:29;;;;;;;4.07;1.40;;;;;;;;;;5083079;28;20188;-78
2022/09/17 11:05:01;;;;;;;4.00;1.33;;;;;;;;;;5085549;28;20688;-78
2022/09/17 11:07:44;;;;;;;4.80;1.50;;;;;;;;;;5085285;28;20515;-80
2022/09/17 11:10:13;;;;;;;4.37;1.40;;;;;;;;;;5086787;28;20232;-80
2022/09/17 11:12:51;;;;;;;4.87;1.53;;;;;;;;;;5087218;28;20272;-84
2022/09/17 11:15:23;;;;;;;4.17;1.40;;;;;;;;;;5087141;28;20185;-78
2022/09/17 11:18:08;;;;;;;3.93;1.53;;;;;;;;;;5085475;28;20200;-79
2022/09/17 11:20:53;;;;;;;4.13;1.50;;;;;;;;;;5084701;28;20786;-80
2022/09/17 11:23:22;;;;;;;4.30;1.57;;;;;;;;;;5087743;28;20258;-78
2022/09/17 11:26:05;;;;;;;3.57;1.27;;;;;;;;;;5086513;28;20215;-81
2022/09/17 11:28:56;;;;;;;3.90;1.43;;;;;;;;;;5079183;28;20279;-75
2022/09/17 11:31:25;;;;;;;4.37;1.60;;;;;;;;;;5087613;28;20212;-79
2022/09/17 11:34:01;;;;;;;3.33;1.60;;;;;;;;;;5097896;27;20917;-79
2022/09/17 11:36:35;;;;;;;4.50;1.53;;;;;;;;;;5083513;28;20265;-77
2022/09/17 11:39:10;;;;;;;3.90;1.50;;;;;;;;;;5094430;28;20808;-79
2022/09/17 11:41:39;;;;;;;4.97;1.50;;;;;;;;;;5084381;28;20180;-80
2022/09/17 11:44:08;;;;;;;4.57;1.40;;;;;;;;;;5084349;28;20268;-76
2022/09/17 11:46:40;;;;;;;5.83;1.50;;;;;;;;;;5084228;28;20212;-76
2022/09/17 11:49:27;;;;;;;3.67;1.30;;;;;;;;;;5082370;28;20724;-76
2022/09/17 11:51:56;;;;;;;3.77;1.60;;;;;;;;;;5085312;28;20172;-76
2022/09/17 11:54:25;;;;;;;4.70;1.40;;;;;;;;;;5083220;28;20564;-77
2022/09/17 11:56:53;;;;;;;4.80;1.43;;;;;;;;;;5075372;28;21837;-77
2022/09/17 11:59:26;;;;;;;6.13;1.30;;;;;;;;;;5083357;28;20205;-76
2022/09/17 12:01:56;;;;;;;3.67;1.50;;;;;;;;;;5083336;28;20273;-76
2022/09/17 12:04:42;;;;;;;3.83;1.40;;;;;;;;;;5075881;28;20181;-76
2022/09/17 12:07:19;;;;;;;5.23;1.40;;;;;;;;;;5081424;28;20207;-77
2022/09/17 12:09:48;;;;;;;5.40;1.57;;;;;;;;;;5065628;28;20727;-78
2022/09/17 12:12:17;;;;;;;4.47;1.60;;;;;;;;;;5075640;28;20576;-76
2022/09/17 12:14:49;;;;;;;2.20;1.20;;;;;;;;;;5080571;28;20216;-77
2022/09/17 12:17:27;;;;;;;3.13;1.30;;;;;;;;;;5083682;28;20620;-82
2022/09/17 12:19:58;;;;;;;4.13;1.30;;;;;;;;;;5073604;28;20522;-78
2022/09/17 12:22:26;;;;;;;5.37;1.40;;;;;;;;;;5088665;28;20256;-82
2022/09/17 12:24:53;;;;;;;4.60;1.40;;;;;;;;;;5076875;28;20584;-79
2022/09/17 12:27:40;;;;;;;4.87;1.37;;;;;;;;;;5070838;28;20288;-77
2022/09/17 12:30:06;;;;;;;4.13;1.30;;;;;;;;;;5058074;28;20246;-79
2022/09/17 12:32:39;;;;;;;2.37;1.10;;;;;;;;;;5080797;28;20176;-78
2022/09/17 12:35:26;;;;;;;5.30;1.07;;;;;;;;;;5091775;28;20208;-77
2022/09/17 12:38:14;;;;;;;2.83;1.17;;;;;;;;;;5079081;28;20189;-77
2022/09/17 12:40:52;;;;;;;3.83;1.13;;;;;;;;;;5075031;28;20364;-77
2022/09/17 12:43:19;;;;;;;3.33;1.00;;;;;;;;;;5082580;28;20376;-77
2022/09/17 12:46:04;;;;;;;4.27;1.37;;;;;;;;;;5083068;28;20250;-77
2022/09/17 12:48:39;;;;;;;3.80;1.17;;;;;;;;;;5077088;28;20667;-78
2022/09/17 12:51:23;;;;;;;3.80;1.20;;;;;;;;;;5084223;28;20207;-77
2022/09/17 12:54:04;;;;;;;2.73;1.03;;;;;;;;;;5085788;28;20180;-77
2022/09/17 12:56:49;;;;;;;3.67;1.20;;;;;;;;;;5078399;28;20208;-77
2022/09/17 12:59:18;;;;;;;4.83;1.30;;;;;;;;;;5084051;28;20211;-77
2022/09/17 13:01:44;;;;;;;3.50;1.10;;;;;;;;;;5080911;28;20185;-78
2022/09/17 13:04:15;;;;;;;3.07;1.53;;;;;;;;;;5084068;28;20263;-78
2022/09/17 13:06:56;;;;;;;3.43;1.00;;;;;;;;;;5083157;28;20906;-77
2022/09/17 13:09:31;;;;;;;2.27;1.00;;;;;;;;;;5083031;28;20700;-79
2022/09/17 13:11:57;;;;;;;2.53;0.93;;;;;;;;;;5084081;28;20211;-78
2022/09/17 13:14:33;;;;;;;3.43;1.27;;;;;;;;;;5079132;28;20181;-77
2022/09/17 13:17:23;;;;;;;3.60;1.40;;;;;;;;;;5083143;28;20302;-78
2022/09/17 13:20:15;;;;;;;3.37;1.30;;;;;;;;;;5082935;28;20303;-77
2022/09/17 13:22:46;;;;;;;5.87;1.40;;;;;;;;;;5056941;28;20921;-77
2022/09/17 13:25:13;;;;;;;3.67;1.10;;;;;;;;;;5078499;28;20294;-75
2022/09/17 13:27:40;;;;;;;5.50;1.50;;;;;;;;;;5075384;28;20189;-78
2022/09/17 13:30:08;;;;;;;4.17;1.30;;;;;;;;;;5074080;28;20227;-75
2022/09/17 13:32:34;;;;;;;2.73;1.00;;;;;;;;;;5072170;28;20234;-77
2022/09/17 13:35:10;;;;;;;2.40;1.10;;;;;;;;;;5068914;28;20781;-76
2022/09/17 13:37:41;;;;;;;2.37;0.90;;;;;;;;;;5072822;28;20203;-77
2022/09/17 13:40:21;;;;;;;2.50;1.13;;;;;;;;;;5071736;28;20297;-79
2022/09/17 13:42:49;;;;;;;3.77;1.10;;;;;;;;;;5075479;28;20184;-78
2022/09/17 13:45:16;;;;;;;10.80;2.80;;;;;;;;;;5093296;27;20235;-77
2022/09/17 13:48:01;;;;;;;3.97;0.97;;;;;;;;;;5067972;28;20184;-79
2022/09/17 13:50:27;;;;;;;2.77;0.83;;;;;;;;;;5085673;28;20200;-77
2022/09/17 13:52:56;;;;;;;1.77;0.90;;;;;;;;;;5070506;28;21365;-78
2022/09/17 13:55:33;;;;;;;1.90;0.80;;;;;;;;;;5071373;28;20193;-80
2022/09/17 13:58:02;;;;;;;1.23;0.80;;;;;;;;;;5065328;28;20210;-79
2022/09/17 14:00:47;;;;;;;5.27;1.00;;;;;;;;;;5076681;28;20208;-78
2022/09/17 14:03:44;;;;;;;1.70;0.90;;;;;;;;;;5074722;28;20639;-75
2022/09/17 14:06:17;;;;;;;2.43;0.83;;;;;;;;;;5067264;28;20213;-78
2022/09/17 14:08:49;;;;;;;2.57;0.80;;;;;;;;;;5077623;28;20184;-78
2022/09/17 14:11:23;;;;;;;1.40;0.90;;;;;;;;;;5073343;28;20348;-77
2022/09/17 14:13:51;;;;;;;1.93;0.70;;;;;;;;;;5054851;28;20199;-76
2022/09/17 14:16:24;;;;;;;1.90;1.00;;;;;;;;;;5077043;28;20198;-78
2022/09/17 14:19:09;;;;;;;3.13;0.90;;;;;;;;;;5079261;28;20211;-78
2022/09/17 14:21:35;;;;;;;1.30;0.80;;;;;;;;;;5070703;28;20283;-76
2022/09/17 14:24:03;;;;;;;2.20;0.83;;;;;;;;;;5069518;28;20192;-76
2022/09/17 14:26:29;;;;;;;2.33;0.70;;;;;;;;;;5076383;28;20238;-75
2022/09/17 14:29:03;;;;;;;2.43;0.80;;;;;;;;;;5082141;28;20778;-78
2022/09/17 14:31:34;;;;;;;2.27;1.00;;;;;;;;;;5073880;28;20180;-76
2022/09/17 14:34:02;;;;;;;2.90;0.80;;;;;;;;;;5075442;28;20245;-77
2022/09/17 14:36:30;;;;;;;2.73;0.80;;;;;;;;;;5080457;28;22564;-77
2022/09/17 14:38:56;;;;;;;2.43;0.90;;;;;;;;;;5080635;28;20193;-76
2022/09/17 14:41:24;;;;;;;2.63;1.00;;;;;;;;;;5076329;28;20176;-77
2022/09/17 14:43:50;;;;;;;1.83;0.80;;;;;;;;;;5075396;28;20184;-77
2022/09/17 14:46:20;;;;;;;3.43;0.70;;;;;;;;;;5077227;28;20223;-76
2022/09/17 14:48:46;;;;;;;1.23;0.90;;;;;;;;;;5076217;28;20243;-75
2022/09/17 14:51:21;;;;;;;3.73;0.77;;;;;;;;;;5081552;28;20214;-79
2022/09/17 14:54:08;;;;;;;1.57;0.83;;;;;;;;;;5080173;28;22052;-78
2022/09/17 14:56:39;;;;;;;2.07;0.67;;;;;;;;;;5076923;28;20196;-77
2022/09/17 14:59:14;;;;;;;0.83;0.70;;;;;;;;;;5075524;28;20204;-75
2022/09/17 15:01:46;;;;;;;0.77;0.60;;;;;;;;;;5075395;28;20184;-76